Roxboro, Canada
Current Conditions -  °F | °C
As of 6:00 AM on Saturday 22 Nov 2014 (Local Time) from CYUL Reporting Station
Overcast Overcast  
Wind Chill: 10°   Ceiling: 9000
Heat Index: 25°   Visibility: 15mi
Dew Point: 18°   Wind: 23mph
Humidity: 74%   Direction: 210°SSW
Pressure: 30.2"   Gusts: NA
Location:  45.5°N, 73.82°W
Report Text: CYUL 221100Z 21020KT 15SM SCT025 OVC090 M04/M08 A3020 RMK SC3AC5 SLP229
Loading
Personal Weather Stations






























Interactive Weather Map New forecast layout! Learn more

10-Day Weather Forecast

Advertisements
Track Severe Weather on mobile